CYOC

Old Crow Airport

Old Crow, , Canada
TAF CYOC 171739Z 1718/1802 08008KT P6SM -SN OVC015 TEMPO 1718/1802 2SM -SN RMK NXT FCST BY 180000Z
Issued Valid From Valid To
Jan-17 @ 17:39 UTC
(6 hours ago)
Jan-17 @ 18:00 UTC
(5 hours ago)
Jan-18 @ 02:00 UTC
(in 3 hours)
Jan-17 @ 18:00 to Jan-18 @ 02:00
TAF CYOC 171739Z 1718/1802 08008KT P6SM -SN OVC015
Wind Visibility Clouds Conditions
80° at 8 knots Greater than 6 miles
  • Overcast at 1,500' AGL
  • Light Snow
Temporary Jan-17 @ 18:00 to Jan-18 @ 02:00
TEMPO 1718/1802 2SM -SN RMK NXT FCST BY 180000Z
Visibility Conditions
2 miles
  • Light Snow
TAF CYOC 171739Z 1718/1802 08008KT P6SM -SN OVC015 TEMPO 1718/1802 2SM -SN RMK NXT FCST BY 180000Z
Issued Jan-17 @ 17:39 UTC
(6 hours ago)
Valid From Jan-17 @ 18:00 UTC
(5 hours ago)
Valid To Jan-18 @ 02:00 UTC
(in 3 hours)
Jan-17 @ 18:00 - Jan-18 @ 02:00
Wind Visibility
80° at 8 knots Greater than 6 miles
Clouds
  • Overcast at 1,500' AGL
Conditions
  • Light Snow
Temporary Jan-17 @ 18:00 - Jan-18 @ 02:00
Conditions
  • Light Snow